sensor_id;sensor_type;location;lat;lon;timestamp;pressure;altitude;pressure_sealevel;temperature;humidity
46007;BME280;31738;50.188;8.524;2022-07-29T00:01:22;98819.00;;;22.59;39.68
46007;BME280;31738;50.188;8.524;2022-07-29T00:03:50;98806.50;;;22.58;39.89
46007;BME280;31738;50.188;8.524;2022-07-29T00:06:28;98820.94;;;22.58;39.77
46007;BME280;31738;50.188;8.524;2022-07-29T00:08:53;98832.22;;;22.57;39.99
46007;BME280;31738;50.188;8.524;2022-07-29T00:11:21;98843.16;;;22.57;39.81
46007;BME280;31738;50.188;8.524;2022-07-29T00:13:47;98844.78;;;22.58;40.05
46007;BME280;31738;50.188;8.524;2022-07-29T00:16:12;98851.38;;;22.57;39.95
46007;BME280;31738;50.188;8.524;2022-07-29T00:18:38;98856.94;;;22.60;39.83
46007;BME280;31738;50.188;8.524;2022-07-29T00:21:04;98866.03;;;22.64;39.89
46007;BME280;31738;50.188;8.524;2022-07-29T00:23:31;98860.22;;;22.66;39.79
46007;BME280;31738;50.188;8.524;2022-07-29T00:25:56;98870.03;;;22.67;39.98
46007;BME280;31738;50.188;8.524;2022-07-29T00:28:22;98877.44;;;22.66;39.67
46007;BME280;31738;50.188;8.524;2022-07-29T00:30:47;98870.03;;;22.67;40.62
46007;BME280;31738;50.188;8.524;2022-07-29T00:33:13;98853.16;;;22.65;40.70
46007;BME280;31738;50.188;8.524;2022-07-29T00:35:38;98851.13;;;22.62;40.97
46007;BME280;31738;50.188;8.524;2022-07-29T00:38:14;98851.47;;;22.60;39.74
46007;BME280;31738;50.188;8.524;2022-07-29T00:40:40;98838.63;;;22.61;40.54
46007;BME280;31738;50.188;8.524;2022-07-29T00:43:06;98833.03;;;22.57;41.27
46007;BME280;31738;50.188;8.524;2022-07-29T00:45:32;98833.28;;;22.52;41.77
46007;BME280;31738;50.188;8.524;2022-07-29T00:47:57;98814.03;;;22.49;41.73
46007;BME280;31738;50.188;8.524;2022-07-29T00:50:23;98816.22;;;22.43;42.30
46007;BME280;31738;50.188;8.524;2022-07-29T00:52:50;98810.75;;;22.43;42.73
46007;BME280;31738;50.188;8.524;2022-07-29T00:55:16;98796.19;;;22.39;43.17
46007;BME280;31738;50.188;8.524;2022-07-29T00:57:42;98777.28;;;22.34;43.75
46007;BME280;31738;50.188;8.524;2022-07-29T01:00:15;98767.41;;;22.30;44.05
46007;BME280;31738;50.188;8.524;2022-07-29T01:02:43;98768.81;;;22.24;44.33
46007;BME280;31738;50.188;8.524;2022-07-29T01:05:10;98761.75;;;22.23;44.38
46007;BME280;31738;50.188;8.524;2022-07-29T01:07:36;98743.56;;;22.15;45.30
46007;BME280;31738;50.188;8.524;2022-07-29T01:10:07;98738.16;;;22.03;46.30
46007;BME280;31738;50.188;8.524;2022-07-29T01:12:35;98731.34;;;21.97;46.46
46007;BME280;31738;50.188;8.524;2022-07-29T01:15:04;98713.28;;;21.92;46.78
46007;BME280;31738;50.188;8.524;2022-07-29T01:17:39;98712.25;;;21.84;46.76
46007;BME280;31738;50.188;8.524;2022-07-29T01:23:30;98702.03;;;21.69;47.46
46007;BME280;31738;50.188;8.524;2022-07-29T01:28:49;98677.16;;;21.59;47.62
46007;BME280;31738;50.188;8.524;2022-07-29T01:31:20;98680.25;;;21.57;47.73
46007;BME280;31738;50.188;8.524;2022-07-29T01:33:52;98673.22;;;21.56;48.20
46007;BME280;31738;50.188;8.524;2022-07-29T01:36:25;98668.44;;;21.53;48.59
46007;BME280;31738;50.188;8.524;2022-07-29T01:39:21;98661.88;;;21.42;48.54
46007;BME280;31738;50.188;8.524;2022-07-29T01:42:13;98666.53;;;21.42;48.93
46007;BME280;31738;50.188;8.524;2022-07-29T01:44:46;98662.75;;;21.46;48.71
46007;BME280;31738;50.188;8.524;2022-07-29T01:47:19;98655.03;;;21.48;48.65
46007;BME280;31738;50.188;8.524;2022-07-29T01:49:51;98655.72;;;21.45;49.20
46007;BME280;31738;50.188;8.524;2022-07-29T01:52:34;98654.03;;;21.41;48.53
46007;BME280;31738;50.188;8.524;2022-07-29T01:55:07;98644.81;;;21.45;48.40
46007;BME280;31738;50.188;8.524;2022-07-29T01:57:36;98648.00;;;21.47;48.88
46007;BME280;31738;50.188;8.524;2022-07-29T02:00:04;98641.72;;;21.47;49.44
46007;BME280;31738;50.188;8.524;2022-07-29T02:02:39;98640.50;;;21.44;49.89
46007;BME280;31738;50.188;8.524;2022-07-29T02:05:07;98641.63;;;21.43;49.67
46007;BME280;31738;50.188;8.524;2022-07-29T02:07:36;98641.19;;;21.41;49.95
46007;BME280;31738;50.188;8.524;2022-07-29T02:10:03;98635.63;;;21.38;50.07
46007;BME280;31738;50.188;8.524;2022-07-29T02:12:31;98626.19;;;21.35;50.20
46007;BME280;31738;50.188;8.524;2022-07-29T02:14:59;98623.38;;;21.32;51.08
46007;BME280;31738;50.188;8.524;2022-07-29T02:17:33;98617.69;;;21.25;51.33
46007;BME280;31738;50.188;8.524;2022-07-29T02:20:03;98612.56;;;21.23;52.09
46007;BME280;31738;50.188;8.524;2022-07-29T02:22:30;98611.00;;;21.22;52.64
46007;BME280;31738;50.188;8.524;2022-07-29T02:24:58;98601.22;;;21.21;53.84
46007;BME280;31738;50.188;8.524;2022-07-29T02:27:24;98601.91;;;21.18;54.48
46007;BME280;31738;50.188;8.524;2022-07-29T02:29:53;98596.25;;;21.11;55.04
46007;BME280;31738;50.188;8.524;2022-07-29T02:32:21;98590.59;;;21.04;56.04
46007;BME280;31738;50.188;8.524;2022-07-29T02:34:48;98584.47;;;20.95;56.83
46007;BME280;31738;50.188;8.524;2022-07-29T02:37:15;98573.31;;;20.88;57.61
46007;BME280;31738;50.188;8.524;2022-07-29T02:39:44;98570.72;;;20.80;58.23
46007;BME280;31738;50.188;8.524;2022-07-29T02:42:13;98563.13;;;20.73;58.57
46007;BME280;31738;50.188;8.524;2022-07-29T02:44:40;98568.44;;;20.70;58.89
46007;BME280;31738;50.188;8.524;2022-07-29T02:47:23;98559.03;;;20.67;59.48
46007;BME280;31738;50.188;8.524;2022-07-29T02:49:56;98556.34;;;20.55;60.23
46007;BME280;31738;50.188;8.524;2022-07-29T02:52:34;98553.38;;;20.48;61.96
46007;BME280;31738;50.188;8.524;2022-07-29T02:58:03;98543.16;;;20.33;63.12
46007;BME280;31738;50.188;8.524;2022-07-29T03:00:32;98539.78;;;20.24;64.93
46007;BME280;31738;50.188;8.524;2022-07-29T03:03:03;98532.25;;;20.09;66.10
46007;BME280;31738;50.188;8.524;2022-07-29T03:05:30;98516.34;;;19.99;67.43
46007;BME280;31738;50.188;8.524;2022-07-29T03:08:02;98510.56;;;19.88;68.50
46007;BME280;31738;50.188;8.524;2022-07-29T03:10:29;98502.84;;;19.78;68.90
46007;BME280;31738;50.188;8.524;2022-07-29T03:12:56;98500.69;;;19.72;69.04
46007;BME280;31738;50.188;8.524;2022-07-29T03:15:23;98493.41;;;19.64;69.52
46007;BME280;31738;50.188;8.524;2022-07-29T03:17:49;98506.09;;;19.60;69.67
46007;BME280;31738;50.188;8.524;2022-07-29T03:20:16;98505.97;;;19.56;69.92
46007;BME280;31738;50.188;8.524;2022-07-29T03:22:42;98500.88;;;19.55;70.28
46007;BME280;31738;50.188;8.524;2022-07-29T03:25:13;98495.06;;;19.44;70.52
46007;BME280;31738;50.188;8.524;2022-07-29T03:27:39;98477.03;;;19.40;70.91
46007;BME280;31738;50.188;8.524;2022-07-29T03:30:06;98460.16;;;19.34;72.06
46007;BME280;31738;50.188;8.524;2022-07-29T03:32:31;98457.03;;;19.24;72.63
46007;BME280;31738;50.188;8.524;2022-07-29T03:34:57;98453.81;;;19.10;73.74
46007;BME280;31738;50.188;8.524;2022-07-29T03:37:23;98448.34;;;18.98;74.59
46007;BME280;31738;50.188;8.524;2022-07-29T03:39:49;98458.94;;;18.91;75.19
46007;BME280;31738;50.188;8.524;2022-07-29T03:42:18;98442.41;;;18.84;76.05
46007;BME280;31738;50.188;8.524;2022-07-29T03:44:47;98442.69;;;18.70;75.70
46007;BME280;31738;50.188;8.524;2022-07-29T03:47:15;98448.66;;;18.63;75.48
46007;BME280;31738;50.188;8.524;2022-07-29T03:49:42;98450.66;;;18.54;75.21
46007;BME280;31738;50.188;8.524;2022-07-29T03:52:09;98442.09;;;18.44;75.61
46007;BME280;31738;50.188;8.524;2022-07-29T03:54:35;98436.69;;;18.35;75.74
46007;BME280;31738;50.188;8.524;2022-07-29T03:57:01;98442.53;;;18.25;75.85
46007;BME280;31738;50.188;8.524;2022-07-29T03:59:27;98437.94;;;18.17;76.54
46007;BME280;31738;50.188;8.524;2022-07-29T04:01:53;98434.16;;;18.10;76.25
46007;BME280;31738;50.188;8.524;2022-07-29T04:04:21;98431.78;;;18.08;76.08
46007;BME280;31738;50.188;8.524;2022-07-29T04:06:47;98430.97;;;18.08;75.90
46007;BME280;31738;50.188;8.524;2022-07-29T04:09:12;98434.00;;;18.06;75.77
46007;BME280;31738;50.188;8.524;2022-07-29T04:11:39;98431.16;;;18.03;75.82
46007;BME280;31738;50.188;8.524;2022-07-29T04:14:05;98436.47;;;17.99;75.79
46007;BME280;31738;50.188;8.524;2022-07-29T04:16:31;98438.22;;;17.95;76.01
46007;BME280;31738;50.188;8.524;2022-07-29T04:18:56;98449.75;;;17.92;75.86
46007;BME280;31738;50.188;8.524;2022-07-29T04:21:22;98447.69;;;17.89;75.84
46007;BME280;31738;50.188;8.524;2022-07-29T04:23:47;98447.25;;;17.87;76.06
46007;BME280;31738;50.188;8.524;2022-07-29T04:26:17;98443.38;;;17.88;76.05
46007;BME280;31738;50.188;8.524;2022-07-29T04:28:42;98449.00;;;17.83;75.47
46007;BME280;31738;50.188;8.524;2022-07-29T04:31:08;98456.31;;;17.83;75.24
46007;BME280;31738;50.188;8.524;2022-07-29T04:33:34;98460.50;;;17.80;75.45
46007;BME280;31738;50.188;8.524;2022-07-29T04:35:59;98460.81;;;17.79;75.36
46007;BME280;31738;50.188;8.524;2022-07-29T04:38:25;98463.88;;;17.77;75.02
46007;BME280;31738;50.188;8.524;2022-07-29T04:40:50;98461.16;;;17.77;75.37
46007;BME280;31738;50.188;8.524;2022-07-29T04:43:16;98466.59;;;17.77;74.92
46007;BME280;31738;50.188;8.524;2022-07-29T04:45:41;98461.63;;;17.79;75.22
46007;BME280;31738;50.188;8.524;2022-07-29T04:48:07;98466.25;;;17.79;74.59
46007;BME280;31738;50.188;8.524;2022-07-29T04:50:33;98464.78;;;17.81;74.65
46007;BME280;31738;50.188;8.524;2022-07-29T04:52:58;98460.97;;;17.82;74.55
46007;BME280;31738;50.188;8.524;2022-07-29T04:55:23;98470.03;;;17.86;73.55
46007;BME280;31738;50.188;8.524;2022-07-29T04:57:50;98482.31;;;17.92;73.25
46007;BME280;31738;50.188;8.524;2022-07-29T05:00:15;98480.53;;;17.96;73.27
46007;BME280;31738;50.188;8.524;2022-07-29T05:02:41;98490.28;;;17.97;73.97
46007;BME280;31738;50.188;8.524;2022-07-29T05:05:07;98485.78;;;18.01;73.76
46007;BME280;31738;50.188;8.524;2022-07-29T05:07:32;98482.06;;;18.06;73.51
46007;BME280;31738;50.188;8.524;2022-07-29T05:09:58;98497.38;;;18.10;73.15
46007;BME280;31738;50.188;8.524;2022-07-29T05:12:24;98495.63;;;18.14;73.41
46007;BME280;31738;50.188;8.524;2022-07-29T05:14:49;98499.25;;;18.18;72.75
46007;BME280;31738;50.188;8.524;2022-07-29T05:17:15;98495.88;;;18.21;72.67
46007;BME280;31738;50.188;8.524;2022-07-29T05:19:40;98501.47;;;18.25;72.29
46007;BME280;31738;50.188;8.524;2022-07-29T05:22:06;98507.03;;;18.28;72.79
46007;BME280;31738;50.188;8.524;2022-07-29T05:24:31;98506.38;;;18.31;72.79
46007;BME280;31738;50.188;8.524;2022-07-29T05:26:57;98510.53;;;18.37;72.89
46007;BME280;31738;50.188;8.524;2022-07-29T05:29:22;98508.41;;;18.43;72.50
46007;BME280;31738;50.188;8.524;2022-07-29T05:31:48;98511.72;;;18.48;71.83
46007;BME280;31738;50.188;8.524;2022-07-29T05:34:13;98511.19;;;18.55;72.57
46007;BME280;31738;50.188;8.524;2022-07-29T05:36:39;98526.81;;;18.58;72.83
46007;BME280;31738;50.188;8.524;2022-07-29T05:39:04;98521.53;;;18.61;72.31
46007;BME280;31738;50.188;8.524;2022-07-29T05:41:32;98522.47;;;18.65;72.45
46007;BME280;31738;50.188;8.524;2022-07-29T05:43:58;98511.72;;;18.69;72.88
46007;BME280;31738;50.188;8.524;2022-07-29T05:46:23;98517.31;;;18.73;73.43
46007;BME280;31738;50.188;8.524;2022-07-29T05:48:49;98516.63;;;18.76;73.49
46007;BME280;31738;50.188;8.524;2022-07-29T05:51:14;98523.00;;;18.80;73.63
46007;BME280;31738;50.188;8.524;2022-07-29T05:53:40;98520.09;;;18.85;73.09
46007;BME280;31738;50.188;8.524;2022-07-29T05:56:06;98521.47;;;18.91;72.66
46007;BME280;31738;50.188;8.524;2022-07-29T05:58:32;98514.69;;;18.97;72.43
46007;BME280;31738;50.188;8.524;2022-07-29T06:00:58;98523.47;;;19.02;72.39
46007;BME280;31738;50.188;8.524;2022-07-29T06:03:27;98523.25;;;19.07;72.50
46007;BME280;31738;50.188;8.524;2022-07-29T06:05:52;98521.13;;;19.13;71.16
46007;BME280;31738;50.188;8.524;2022-07-29T06:08:18;98526.94;;;19.23;70.86
46007;BME280;31738;50.188;8.524;2022-07-29T06:10:44;98521.00;;;19.30;70.43
46007;BME280;31738;50.188;8.524;2022-07-29T06:13:11;98533.69;;;19.38;71.27
46007;BME280;31738;50.188;8.524;2022-07-29T06:15:37;98528.53;;;19.45;71.10
46007;BME280;31738;50.188;8.524;2022-07-29T06:18:03;98531.81;;;19.50;70.42
46007;BME280;31738;50.188;8.524;2022-07-29T06:20:29;98538.28;;;19.58;70.62
46007;BME280;31738;50.188;8.524;2022-07-29T06:22:58;98541.28;;;19.65;69.90
46007;BME280;31738;50.188;8.524;2022-07-29T06:25:24;98538.09;;;19.75;69.54
46007;BME280;31738;50.188;8.524;2022-07-29T06:27:52;98543.13;;;19.85;69.01
46007;BME280;31738;50.188;8.524;2022-07-29T06:30:21;98552.41;;;19.96;68.90
46007;BME280;31738;50.188;8.524;2022-07-29T06:32:47;98553.91;;;20.05;67.82
46007;BME280;31738;50.188;8.524;2022-07-29T06:35:13;98553.50;;;20.15;67.86
46007;BME280;31738;50.188;8.524;2022-07-29T06:37:41;98562.72;;;20.23;67.05
46007;BME280;31738;50.188;8.524;2022-07-29T06:40:07;98561.81;;;20.31;67.90
46007;BME280;31738;50.188;8.524;2022-07-29T06:42:51;98562.69;;;20.35;66.99
46007;BME280;31738;50.188;8.524;2022-07-29T06:45:22;98573.13;;;20.45;66.92
46007;BME280;31738;50.188;8.524;2022-07-29T06:47:52;98571.75;;;20.51;67.12
46007;BME280;31738;50.188;8.524;2022-07-29T06:50:18;98578.59;;;20.57;66.92
46007;BME280;31738;50.188;8.524;2022-07-29T06:52:46;98584.72;;;20.66;66.27
46007;BME280;31738;50.188;8.524;2022-07-29T06:55:15;98580.38;;;20.77;66.26
46007;BME280;31738;50.188;8.524;2022-07-29T06:57:40;98588.56;;;20.89;65.85
46007;BME280;31738;50.188;8.524;2022-07-29T07:00:16;98583.53;;;21.03;66.35
46007;BME280;31738;50.188;8.524;2022-07-29T07:02:52;98588.63;;;21.17;66.07
46007;BME280;31738;50.188;8.524;2022-07-29T07:05:25;98601.53;;;21.32;64.72
46007;BME280;31738;50.188;8.524;2022-07-29T07:07:50;98618.31;;;21.46;62.67
46007;BME280;31738;50.188;8.524;2022-07-29T07:10:22;98629.53;;;21.56;61.13
46007;BME280;31738;50.188;8.524;2022-07-29T07:12:50;98633.72;;;21.66;60.01
46007;BME280;31738;50.188;8.524;2022-07-29T07:15:30;98648.44;;;21.77;58.10
46007;BME280;31738;50.188;8.524;2022-07-29T07:18:08;98652.97;;;21.85;58.25
46007;BME280;31738;50.188;8.524;2022-07-29T07:20:34;98661.44;;;21.95;58.12
46007;BME280;31738;50.188;8.524;2022-07-29T07:23:00;98673.13;;;22.08;56.62
46007;BME280;31738;50.188;8.524;2022-07-29T07:25:30;98681.25;;;22.20;57.21
46007;BME280;31738;50.188;8.524;2022-07-29T07:28:05;98683.91;;;22.32;56.15
46007;BME280;31738;50.188;8.524;2022-07-29T07:30:36;98688.63;;;22.47;56.28
46007;BME280;31738;50.188;8.524;2022-07-29T07:33:10;98702.47;;;22.54;55.84
46007;BME280;31738;50.188;8.524;2022-07-29T07:35:45;98705.38;;;22.61;53.96
46007;BME280;31738;50.188;8.524;2022-07-29T07:38:16;98709.38;;;22.64;53.70
46007;BME280;31738;50.188;8.524;2022-07-29T07:40:47;98720.66;;;22.62;53.59
46007;BME280;31738;50.188;8.524;2022-07-29T07:43:21;98725.06;;;22.67;53.14
46007;BME280;31738;50.188;8.524;2022-07-29T07:45:50;98721.63;;;22.54;53.20
46007;BME280;31738;50.188;8.524;2022-07-29T07:48:26;98719.34;;;22.72;52.97
46007;BME280;31738;50.188;8.524;2022-07-29T07:50:55;98722.16;;;22.91;51.84
46007;BME280;31738;50.188;8.524;2022-07-29T07:53:35;98723.28;;;23.05;51.71
46007;BME280;31738;50.188;8.524;2022-07-29T07:56:39;98730.59;;;23.17;51.12
46007;BME280;31738;50.188;8.524;2022-07-29T07:59:13;98741.03;;;23.27;50.82
46007;BME280;31738;50.188;8.524;2022-07-29T08:02:04;98730.69;;;23.36;53.29
46007;BME280;31738;50.188;8.524;2022-07-29T08:04:35;98732.84;;;23.46;51.59
46007;BME280;31738;50.188;8.524;2022-07-29T08:07:04;98736.19;;;23.55;51.53
46007;BME280;31738;50.188;8.524;2022-07-29T08:09:40;98750.19;;;23.69;50.25
46007;BME280;31738;50.188;8.524;2022-07-29T08:12:11;98735.22;;;23.82;52.40
46007;BME280;31738;50.188;8.524;2022-07-29T08:14:45;98733.06;;;23.91;52.43
46007;BME280;31738;50.188;8.524;2022-07-29T08:17:15;98742.75;;;24.04;50.52
46007;BME280;31738;50.188;8.524;2022-07-29T08:19:44;98737.53;;;24.18;50.84
46007;BME280;31738;50.188;8.524;2022-07-29T08:22:20;98740.41;;;24.25;51.63
46007;BME280;31738;50.188;8.524;2022-07-29T08:24:57;98751.09;;;24.30;49.96
46007;BME280;31738;50.188;8.524;2022-07-29T08:27:35;98757.56;;;24.41;48.98
46007;BME280;31738;50.188;8.524;2022-07-29T08:30:03;98746.00;;;24.51;49.51
46007;BME280;31738;50.188;8.524;2022-07-29T08:32:40;98746.97;;;24.62;50.99
46007;BME280;31738;50.188;8.524;2022-07-29T08:35:14;98743.59;;;24.69;50.94
46007;BME280;31738;50.188;8.524;2022-07-29T08:37:42;98760.53;;;24.74;50.35
46007;BME280;31738;50.188;8.524;2022-07-29T08:40:18;98752.84;;;24.83;49.82
46007;BME280;31738;50.188;8.524;2022-07-29T08:42:51;98756.91;;;24.89;49.16
46007;BME280;31738;50.188;8.524;2022-07-29T08:45:29;98764.88;;;24.98;49.25
46007;BME280;31738;50.188;8.524;2022-07-29T08:48:30;98770.81;;;25.00;47.90
46007;BME280;31738;50.188;8.524;2022-07-29T08:51:00;98779.16;;;25.07;47.20
46007;BME280;31738;50.188;8.524;2022-07-29T08:53:35;98780.44;;;25.13;47.41
46007;BME280;31738;50.188;8.524;2022-07-29T08:56:24;98788.09;;;25.27;45.93
46007;BME280;31738;50.188;8.524;2022-07-29T08:58:54;98791.03;;;25.37;45.32
46007;BME280;31738;50.188;8.524;2022-07-29T09:01:52;98801.03;;;25.49;45.04
46007;BME280;31738;50.188;8.524;2022-07-29T09:04:24;98795.03;;;25.66;45.83
46007;BME280;31738;50.188;8.524;2022-07-29T09:07:17;98810.06;;;25.75;45.73
46007;BME280;31738;50.188;8.524;2022-07-29T09:09:46;98814.91;;;25.85;43.87
46007;BME280;31738;50.188;8.524;2022-07-29T09:12:12;98819.69;;;25.88;43.38
46007;BME280;31738;50.188;8.524;2022-07-29T09:14:46;98820.56;;;25.96;43.74
46007;BME280;31738;50.188;8.524;2022-07-29T09:20:17;98816.97;;;26.18;43.48
46007;BME280;31738;50.188;8.524;2022-07-29T09:22:51;98823.47;;;26.36;44.05
46007;BME280;31738;50.188;8.524;2022-07-29T09:28:21;98832.59;;;26.43;42.70
46007;BME280;31738;50.188;8.524;2022-07-29T09:31:47;98834.66;;;26.50;42.03
46007;BME280;31738;50.188;8.524;2022-07-29T09:34:28;98828.16;;;26.65;41.86
46007;BME280;31738;50.188;8.524;2022-07-29T09:36:57;98834.13;;;26.70;41.97
46007;BME280;31738;50.188;8.524;2022-07-29T09:39:39;98848.69;;;26.71;40.86
46007;BME280;31738;50.188;8.524;2022-07-29T09:42:29;98840.16;;;26.50;40.51
46007;BME280;31738;50.188;8.524;2022-07-29T09:45:05;98839.19;;;26.35;40.92
46007;BME280;31738;50.188;8.524;2022-07-29T09:47:48;98832.97;;;26.42;42.78
46007;BME280;31738;50.188;8.524;2022-07-29T09:50:21;98828.16;;;26.65;42.96
46007;BME280;31738;50.188;8.524;2022-07-29T09:52:56;98831.19;;;26.90;41.84
46007;BME280;31738;50.188;8.524;2022-07-29T09:55:25;98828.25;;;27.12;42.20
46007;BME280;31738;50.188;8.524;2022-07-29T09:58:17;98822.13;;;27.29;41.89
46007;BME280;31738;50.188;8.524;2022-07-29T10:00:53;98829.75;;;27.46;40.89
46007;BME280;31738;50.188;8.524;2022-07-29T10:03:30;98831.84;;;27.63;41.13
46007;BME280;31738;50.188;8.524;2022-07-29T10:06:11;98835.06;;;27.72;39.61
46007;BME280;31738;50.188;8.524;2022-07-29T10:08:53;98829.41;;;27.55;40.86
46007;BME280;31738;50.188;8.524;2022-07-29T10:11:22;98829.13;;;27.70;40.11
46007;BME280;31738;50.188;8.524;2022-07-29T10:13:50;98829.19;;;27.77;39.46
46007;BME280;31738;50.188;8.524;2022-07-29T10:16:20;98832.84;;;27.88;39.88
46007;BME280;31738;50.188;8.524;2022-07-29T10:18:51;98830.91;;;27.99;39.67
46007;BME280;31738;50.188;8.524;2022-07-29T10:21:17;98831.38;;;28.12;39.51
46007;BME280;31738;50.188;8.524;2022-07-29T10:23:49;98835.31;;;28.11;39.86
46007;BME280;31738;50.188;8.524;2022-07-29T10:26:20;98830.59;;;28.11;39.61
46007;BME280;31738;50.188;8.524;2022-07-29T10:28:49;98820.81;;;28.31;40.32
46007;BME280;31738;50.188;8.524;2022-07-29T10:31:52;98817.41;;;28.56;39.48
46007;BME280;31738;50.188;8.524;2022-07-29T10:38:04;98822.97;;;28.70;39.66
46007;BME280;31738;50.188;8.524;2022-07-29T10:40:44;98837.22;;;28.93;38.57
46007;BME280;31738;50.188;8.524;2022-07-29T10:43:47;98828.16;;;29.10;38.82
46007;BME280;31738;50.188;8.524;2022-07-29T10:46:17;98829.38;;;29.30;38.59
46007;BME280;31738;50.188;8.524;2022-07-29T10:49:12;98823.84;;;29.44;38.38
46007;BME280;31738;50.188;8.524;2022-07-29T10:52:07;98830.19;;;29.48;38.61
46007;BME280;31738;50.188;8.524;2022-07-29T10:54:46;98825.41;;;29.52;37.79
46007;BME280;31738;50.188;8.524;2022-07-29T10:57:38;98827.78;;;29.50;37.49
46007;BME280;31738;50.188;8.524;2022-07-29T11:05:20;98809.19;;;29.89;38.11
46007;BME280;31738;50.188;8.524;2022-07-29T11:13:52;98815.03;;;30.19;37.27
46007;BME280;31738;50.188;8.524;2022-07-29T11:16:23;98809.09;;;30.28;36.82
46007;BME280;31738;50.188;8.524;2022-07-29T11:21:40;98808.59;;;30.50;37.38
46007;BME280;31738;50.188;8.524;2022-07-29T11:24:29;98810.09;;;30.62;36.99
46007;BME280;31738;50.188;8.524;2022-07-29T11:27:13;98815.63;;;30.65;36.41
46007;BME280;31738;50.188;8.524;2022-07-29T11:30:08;98806.09;;;30.73;37.47
46007;BME280;31738;50.188;8.524;2022-07-29T11:32:46;98801.25;;;30.91;37.21
46007;BME280;31738;50.188;8.524;2022-07-29T11:35:20;98801.56;;;31.04;36.29
46007;BME280;31738;50.188;8.524;2022-07-29T11:38:24;98797.41;;;30.75;37.01
46007;BME280;31738;50.188;8.524;2022-07-29T11:43:58;98800.69;;;30.42;37.40
46007;BME280;31738;50.188;8.524;2022-07-29T11:46:52;98806.28;;;30.35;36.97
46007;BME280;31738;50.188;8.524;2022-07-29T11:49:28;98796.00;;;30.35;37.01
46007;BME280;31738;50.188;8.524;2022-07-29T11:51:58;98792.00;;;30.43;38.19
46007;BME280;31738;50.188;8.524;2022-07-29T11:54:33;98781.69;;;30.47;38.02
46007;BME280;31738;50.188;8.524;2022-07-29T11:57:06;98775.44;;;30.36;37.54
46007;BME280;31738;50.188;8.524;2022-07-29T11:59:43;98779.00;;;30.37;37.12
46007;BME280;31738;50.188;8.524;2022-07-29T12:02:19;98772.19;;;30.52;37.50
46007;BME280;31738;50.188;8.524;2022-07-29T12:04:57;98768.06;;;30.81;37.85
46007;BME280;31738;50.188;8.524;2022-07-29T12:07:32;98766.34;;;30.97;37.28
46007;BME280;31738;50.188;8.524;2022-07-29T12:10:01;98762.69;;;31.07;35.93
46007;BME280;31738;50.188;8.524;2022-07-29T12:12:30;98765.00;;;31.19;36.23
46007;BME280;31738;50.188;8.524;2022-07-29T12:15:15;98765.28;;;31.32;36.42
46007;BME280;31738;50.188;8.524;2022-07-29T12:17:49;98762.78;;;31.44;36.82
46007;BME280;31738;50.188;8.524;2022-07-29T12:20:27;98762.75;;;31.52;35.70
46007;BME280;31738;50.188;8.524;2022-07-29T12:22:53;98761.16;;;31.50;35.23
46007;BME280;31738;50.188;8.524;2022-07-29T12:25:20;98762.69;;;31.55;35.70
46007;BME280;31738;50.188;8.524;2022-07-29T12:27:46;98768.28;;;31.52;36.61
46007;BME280;31738;50.188;8.524;2022-07-29T12:30:14;98767.59;;;31.40;35.86
46007;BME280;31738;50.188;8.524;2022-07-29T12:32:46;98766.16;;;31.22;35.72
46007;BME280;31738;50.188;8.524;2022-07-29T12:35:14;98759.00;;;31.24;35.36
46007;BME280;31738;50.188;8.524;2022-07-29T12:37:41;98755.00;;;31.32;35.08
46007;BME280;31738;50.188;8.524;2022-07-29T12:40:08;98744.28;;;31.34;35.96
46007;BME280;31738;50.188;8.524;2022-07-29T12:42:34;98736.28;;;31.40;36.26
46007;BME280;31738;50.188;8.524;2022-07-29T12:45:00;98741.38;;;31.48;35.66
46007;BME280;31738;50.188;8.524;2022-07-29T12:47:26;98737.31;;;31.57;35.97
46007;BME280;31738;50.188;8.524;2022-07-29T12:50:11;98742.09;;;31.56;35.15
46007;BME280;31738;50.188;8.524;2022-07-29T12:52:37;98730.44;;;31.27;35.66
46007;BME280;31738;50.188;8.524;2022-07-29T12:55:03;98732.59;;;31.53;36.05
46007;BME280;31738;50.188;8.524;2022-07-29T12:57:29;98723.84;;;31.55;36.09
46007;BME280;31738;50.188;8.524;2022-07-29T13:00:06;98734.28;;;31.44;35.21
46007;BME280;31738;50.188;8.524;2022-07-29T13:02:34;98731.09;;;31.45;35.26
46007;BME280;31738;50.188;8.524;2022-07-29T13:05:00;98735.00;;;31.52;34.79
46007;BME280;31738;50.188;8.524;2022-07-29T13:07:28;98735.34;;;31.53;34.66
46007;BME280;31738;50.188;8.524;2022-07-29T13:10:09;98730.59;;;31.54;35.20
46007;BME280;31738;50.188;8.524;2022-07-29T13:12:36;98733.69;;;31.63;34.72
46007;BME280;31738;50.188;8.524;2022-07-29T13:15:12;98737.78;;;31.52;35.21
46007;BME280;31738;50.188;8.524;2022-07-29T13:17:42;98743.06;;;31.35;35.02
46007;BME280;31738;50.188;8.524;2022-07-29T13:20:12;98738.44;;;31.18;36.09
46007;BME280;31738;50.188;8.524;2022-07-29T13:22:40;98731.44;;;31.07;36.26
46007;BME280;31738;50.188;8.524;2022-07-29T13:25:08;98736.25;;;30.99;36.16
46007;BME280;31738;50.188;8.524;2022-07-29T13:27:35;98733.09;;;30.97;35.37
46007;BME280;31738;50.188;8.524;2022-07-29T13:30:04;98735.88;;;30.97;35.05
46007;BME280;31738;50.188;8.524;2022-07-29T13:32:30;98738.72;;;30.87;35.64
46007;BME280;31738;50.188;8.524;2022-07-29T13:34:59;98729.28;;;30.74;35.71
46007;BME280;31738;50.188;8.524;2022-07-29T13:37:25;98731.72;;;30.68;35.52
46007;BME280;31738;50.188;8.524;2022-07-29T13:39:51;98721.00;;;30.70;35.65
46007;BME280;31738;50.188;8.524;2022-07-29T13:42:18;98726.16;;;30.68;35.25
46007;BME280;31738;50.188;8.524;2022-07-29T13:44:43;98735.03;;;30.46;35.24
46007;BME280;31738;50.188;8.524;2022-07-29T13:47:09;98735.13;;;30.28;35.39
46007;BME280;31738;50.188;8.524;2022-07-29T13:49:34;98735.94;;;30.15;36.64
46007;BME280;31738;50.188;8.524;2022-07-29T13:52:00;98731.28;;;30.01;36.35
46007;BME280;31738;50.188;8.524;2022-07-29T13:54:26;98729.75;;;29.79;37.42
46007;BME280;31738;50.188;8.524;2022-07-29T13:56:52;98722.72;;;29.64;37.77